Time;durP1;ratioP1;P1;durP2;ratioP2;P2;SDS_P1;SDS_P2;PMS_P1;PMS_P2;Temp;Humidity;BMP_temperature;BMP_pressure;BME280_temperature;BME280_humidity;BME280_pressure;Samples;Min_cycle;Max_cycle;Signal;HPM_P1;HPM_P2
2021/12/11 00:01:49;;;;;;;33.78;15.00;;;;;;;;;;5014028;28;97320;-78
2021/12/11 00:04:18;;;;;;;28.60;14.85;;;;;;;;;;5031168;28;97340;-77
2021/12/11 00:06:46;;;;;;;34.45;16.40;;;;;;;;;;5011434;27;95554;-78
2021/12/11 00:09:13;;;;;;;27.23;16.40;;;;;;;;;;4994117;28;97051;-77
2021/12/11 00:11:41;;;;;;;31.65;15.75;;;;;;;;;;4994086;28;95197;-78
2021/12/11 00:14:09;;;;;;;32.47;16.02;;;;;;;;;;5025441;28;95528;-78
2021/12/11 00:16:37;;;;;;;31.40;15.77;;;;;;;;;;5033121;27;97362;-77
2021/12/11 00:19:06;;;;;;;27.67;16.02;;;;;;;;;;5034901;27;95461;-77
2021/12/11 00:21:32;;;;;;;28.60;14.52;;;;;;;;;;5034642;28;97057;-78
2021/12/11 00:24:04;;;;;;;25.08;15.10;;;;;;;;;;5034010;28;96430;-77
2021/12/11 00:26:38;;;;;;;32.47;15.60;;;;;;;;;;5034985;27;95203;-77
2021/12/11 00:29:06;;;;;;;29.70;14.63;;;;;;;;;;5056689;27;95813;-75
2021/12/11 00:31:33;;;;;;;35.08;15.50;;;;;;;;;;5041627;27;95381;-78
2021/12/11 00:34:00;;;;;;;34.58;16.30;;;;;;;;;;5051947;27;97044;-78
2021/12/11 00:36:32;;;;;;;33.28;15.95;;;;;;;;;;5042715;27;97464;-78
2021/12/11 00:39:12;;;;;;;27.90;15.90;;;;;;;;;;5026569;27;95183;-78
2021/12/11 00:41:38;;;;;;;25.48;15.30;;;;;;;;;;5035404;27;96869;-77
2021/12/11 00:44:05;;;;;;;31.38;16.30;;;;;;;;;;5017173;28;97525;-78
2021/12/11 00:46:32;;;;;;;28.90;16.27;;;;;;;;;;5038552;27;95246;-78
2021/12/11 00:49:08;;;;;;;28.67;15.45;;;;;;;;;;5038434;28;96824;-78
2021/12/11 00:51:34;;;;;;;36.85;16.30;;;;;;;;;;5035103;27;95488;-78
2021/12/11 00:54:02;;;;;;;35.65;15.25;;;;;;;;;;5035631;27;96540;-78
2021/12/11 00:56:30;;;;;;;30.67;16.60;;;;;;;;;;5030564;27;98022;-76
2021/12/11 00:58:59;;;;;;;33.42;16.02;;;;;;;;;;5027493;27;95595;-77
2021/12/11 01:01:25;;;;;;;28.95;15.63;;;;;;;;;;5037951;27;96771;-78
2021/12/11 01:04:01;;;;;;;27.15;15.65;;;;;;;;;;5034378;28;97299;-78
2021/12/11 01:06:30;;;;;;;34.97;16.15;;;;;;;;;;5033088;28;95183;-77
2021/12/11 01:09:00;;;;;;;32.95;16.40;;;;;;;;;;5053856;27;97266;-77
2021/12/11 01:11:33;;;;;;;31.55;15.60;;;;;;;;;;5058111;27;97471;-77
2021/12/11 01:14:12;;;;;;;31.10;16.45;;;;;;;;;;5054459;27;97222;-78
2021/12/11 01:16:40;;;;;;;33.63;16.98;;;;;;;;;;5034406;27;97856;-77
2021/12/11 01:19:07;;;;;;;32.28;16.58;;;;;;;;;;5031247;27;95423;-77
2021/12/11 01:26:32;;;;;;;27.95;15.57;;;;;;;;;;5034289;27;94960;-77
2021/12/11 01:28:58;;;;;;;30.05;14.93;;;;;;;;;;5034201;27;97197;-77
2021/12/11 01:31:27;;;;;;;34.97;15.65;;;;;;;;;;5044223;27;97893;-78
2021/12/11 01:33:54;;;;;;;33.25;15.65;;;;;;;;;;5045331;27;95405;-78
2021/12/11 01:36:24;;;;;;;32.65;16.05;;;;;;;;;;5049223;27;98066;-77
2021/12/11 01:38:58;;;;;;;44.90;16.58;;;;;;;;;;5037343;27;95310;-77
2021/12/11 01:41:25;;;;;;;35.85;16.73;;;;;;;;;;5034205;28;96738;-78
2021/12/11 01:43:53;;;;;;;35.00;17.38;;;;;;;;;;5033833;28;97415;-77
2021/12/11 01:46:20;;;;;;;31.65;16.40;;;;;;;;;;5032973;28;95195;-77
2021/12/11 01:48:49;;;;;;;32.63;15.88;;;;;;;;;;5044414;27;97285;-78
2021/12/11 01:51:23;;;;;;;35.22;16.73;;;;;;;;;;5032838;27;98090;-78
2021/12/11 01:53:51;;;;;;;34.40;16.60;;;;;;;;;;5033844;28;95348;-77
2021/12/11 01:56:20;;;;;;;33.20;15.55;;;;;;;;;;5035454;28;96817;-78
2021/12/11 01:58:50;;;;;;;29.13;16.52;;;;;;;;;;5038043;27;95273;-78
2021/12/11 02:01:20;;;;;;;30.48;16.52;;;;;;;;;;5038529;27;96801;-77
2021/12/11 02:03:48;;;;;;;37.45;17.67;;;;;;;;;;5033132;27;97209;-78
2021/12/11 02:06:15;;;;;;;35.17;16.00;;;;;;;;;;5018708;28;95288;-78
2021/12/11 02:08:41;;;;;;;39.25;16.70;;;;;;;;;;5045799;27;97335;-77
2021/12/11 02:11:17;;;;;;;37.72;17.33;;;;;;;;;;5053567;27;97211;-78
2021/12/11 02:14:06;;;;;;;34.45;16.02;;;;;;;;;;5053287;27;95490;-78
2021/12/11 02:16:38;;;;;;;38.92;16.60;;;;;;;;;;5045385;27;96881;-78
2021/12/11 02:19:06;;;;;;;33.88;15.95;;;;;;;;;;5047036;27;97375;-78
2021/12/11 02:21:56;;;;;;;35.50;16.67;;;;;;;;;;5053917;27;95851;-77
2021/12/11 02:24:32;;;;;;;30.17;15.00;;;;;;;;;;5040021;27;97420;-78
2021/12/11 02:26:58;;;;;;;35.92;17.25;;;;;;;;;;5036946;27;95156;-78
2021/12/11 02:29:28;;;;;;;35.03;16.38;;;;;;;;;;5034996;27;97201;-78
2021/12/11 02:32:00;;;;;;;31.95;16.95;;;;;;;;;;5046615;27;97607;-78
2021/12/11 02:34:35;;;;;;;31.37;15.93;;;;;;;;;;5053359;27;95221;-78
2021/12/11 02:37:35;;;;;;;34.38;16.88;;;;;;;;;;5044914;27;97082;-78
2021/12/11 02:40:17;;;;;;;28.65;15.30;;;;;;;;;;4989627;28;97221;-78
2021/12/11 02:42:49;;;;;;;37.13;16.25;;;;;;;;;;5036517;28;95142;-79
2021/12/11 02:45:25;;;;;;;34.30;15.77;;;;;;;;;;5032272;28;97631;-78
2021/12/11 02:47:53;;;;;;;36.83;15.82;;;;;;;;;;5014327;28;95322;-78
2021/12/11 02:50:32;;;;;;;28.65;15.48;;;;;;;;;;5045829;27;96810;-78
2021/12/11 02:53:01;;;;;;;29.67;15.50;;;;;;;;;;5052930;27;97786;-78
2021/12/11 02:55:31;;;;;;;31.48;15.88;;;;;;;;;;5052542;27;95463;-78
2021/12/11 02:57:59;;;;;;;32.67;16.08;;;;;;;;;;5018688;27;96046;-78
2021/12/11 03:00:30;;;;;;;32.53;16.45;;;;;;;;;;5033662;27;97321;-78
2021/12/11 03:03:04;;;;;;;29.88;15.15;;;;;;;;;;5038185;27;95207;-78
2021/12/11 03:05:41;;;;;;;30.85;14.88;;;;;;;;;;5050793;27;96167;-78
2021/12/11 03:08:09;;;;;;;34.50;14.77;;;;;;;;;;5036442;27;95136;-77
2021/12/11 03:10:36;;;;;;;26.85;14.63;;;;;;;;;;5037215;27;96793;-78
2021/12/11 03:13:04;;;;;;;25.92;14.15;;;;;;;;;;5025456;28;96348;-77
2021/12/11 03:15:33;;;;;;;27.45;13.45;;;;;;;;;;5016969;28;95255;-78
2021/12/11 03:18:00;;;;;;;25.38;13.65;;;;;;;;;;5039592;27;96754;-78
2021/12/11 03:20:27;;;;;;;27.67;13.90;;;;;;;;;;5014640;28;96913;-78
2021/12/11 03:22:53;;;;;;;30.00;14.32;;;;;;;;;;5015666;27;95375;-78
2021/12/11 03:25:25;;;;;;;27.75;13.93;;;;;;;;;;5042749;27;96954;-79
2021/12/11 03:27:51;;;;;;;27.95;15.20;;;;;;;;;;5040714;27;95185;-78
2021/12/11 03:30:26;;;;;;;36.17;15.48;;;;;;;;;;5035399;27;96873;-79
2021/12/11 03:32:54;;;;;;;32.72;15.23;;;;;;;;;;5033501;27;97095;-78
2021/12/11 03:35:20;;;;;;;32.45;15.82;;;;;;;;;;5031164;27;95644;-79
2021/12/11 03:37:47;;;;;;;32.47;16.45;;;;;;;;;;5049553;27;96789;-78
2021/12/11 03:40:13;;;;;;;28.77;15.23;;;;;;;;;;5041257;27;97037;-78
2021/12/11 03:42:41;;;;;;;29.27;15.60;;;;;;;;;;5032157;27;95831;-78
2021/12/11 03:45:09;;;;;;;31.08;15.80;;;;;;;;;;5030296;27;97110;-77
2021/12/11 03:47:37;;;;;;;32.78;15.30;;;;;;;;;;5017650;27;97395;-78
2021/12/11 03:50:07;;;;;;;30.45;15.23;;;;;;;;;;5036857;27;97516;-79
2021/12/11 03:52:34;;;;;;;29.63;16.15;;;;;;;;;;5052407;27;96641;-78
2021/12/11 03:55:00;;;;;;;27.90;14.88;;;;;;;;;;5051690;27;95228;-77
2021/12/11 03:57:28;;;;;;;33.78;15.82;;;;;;;;;;5030599;28;96370;-78
2021/12/11 03:59:54;;;;;;;26.17;14.70;;;;;;;;;;5037781;27;99019;-76
2021/12/11 04:02:23;;;;;;;27.55;15.30;;;;;;;;;;5036796;27;95358;-78
2021/12/11 04:04:52;;;;;;;29.20;14.82;;;;;;;;;;5045930;27;97200;-78
2021/12/11 04:07:23;;;;;;;30.30;14.75;;;;;;;;;;5042490;27;97557;-78
2021/12/11 04:09:50;;;;;;;32.90;15.90;;;;;;;;;;5052983;27;95973;-77
2021/12/11 04:12:18;;;;;;;29.67;14.25;;;;;;;;;;5039658;27;97085;-77
2021/12/11 04:14:46;;;;;;;30.05;16.52;;;;;;;;;;5032310;27;95076;-77
2021/12/11 04:17:14;;;;;;;31.10;15.43;;;;;;;;;;5016991;28;96901;-77
2021/12/11 04:19:41;;;;;;;34.65;15.70;;;;;;;;;;5033606;27;97376;-77
2021/12/11 04:22:08;;;;;;;33.03;16.35;;;;;;;;;;5041798;27;95490;-77
2021/12/11 04:24:36;;;;;;;34.10;16.30;;;;;;;;;;5049376;27;95869;-77
2021/12/11 04:27:04;;;;;;;33.28;15.75;;;;;;;;;;5033849;27;97330;-78
2021/12/11 04:29:30;;;;;;;35.80;16.30;;;;;;;;;;5021850;28;95477;-76
2021/12/11 04:32:00;;;;;;;28.98;14.80;;;;;;;;;;5049419;27;97258;-75
2021/12/11 04:34:26;;;;;;;30.58;14.95;;;;;;;;;;5031528;28;95328;-76
2021/12/11 04:36:57;;;;;;;39.92;16.15;;;;;;;;;;5042372;27;96937;-76
2021/12/11 04:39:25;;;;;;;40.25;16.00;;;;;;;;;;5041053;27;97065;-75
2021/12/11 04:42:00;;;;;;;35.58;16.02;;;;;;;;;;5047069;27;95288;-75
2021/12/11 04:44:33;;;;;;;30.83;14.85;;;;;;;;;;5038477;27;95850;-75
2021/12/11 04:46:59;;;;;;;30.85;15.20;;;;;;;;;;5051369;27;97421;-74
2021/12/11 04:49:36;;;;;;;28.15;15.82;;;;;;;;;;5038646;27;96560;-76
2021/12/11 04:52:18;;;;;;;36.25;16.30;;;;;;;;;;5028033;27;95856;-77
2021/12/11 04:55:04;;;;;;;44.37;18.60;;;;;;;;;;5029750;27;95196;-74
2021/12/11 05:00:18;;;;;;;37.70;18.80;;;;;;;;;;5033650;27;97444;-74
2021/12/11 05:05:58;;;;;;;44.53;19.70;;;;;;;;;;5037964;27;97095;-74
2021/12/11 05:11:13;;;;;;;48.40;21.85;;;;;;;;;;5034899;27;95116;-75
2021/12/11 05:13:39;;;;;;;49.60;21.55;;;;;;;;;;5034166;28;96615;-74
2021/12/11 05:16:08;;;;;;;41.10;19.75;;;;;;;;;;5019652;28;97428;-74
2021/12/11 05:18:36;;;;;;;64.45;24.48;;;;;;;;;;5039662;27;96826;-74
2021/12/11 05:21:05;;;;;;;55.72;22.98;;;;;;;;;;5027380;27;97316;-74
2021/12/11 05:23:31;;;;;;;57.45;22.65;;;;;;;;;;5034376;27;95349;-75
2021/12/11 05:25:58;;;;;;;64.45;23.45;;;;;;;;;;5035717;27;97011;-77
2021/12/11 05:28:25;;;;;;;56.67;22.10;;;;;;;;;;5045079;27;97251;-78
2021/12/11 05:30:53;;;;;;;52.25;22.52;;;;;;;;;;5033773;28;95334;-75
2021/12/11 05:33:20;;;;;;;53.45;23.23;;;;;;;;;;5039308;27;97092;-75
2021/12/11 05:35:47;;;;;;;51.22;23.05;;;;;;;;;;5016011;28;97506;-75
2021/12/11 05:38:15;;;;;;;59.00;23.23;;;;;;;;;;5037507;28;95307;-75
2021/12/11 05:40:43;;;;;;;68.68;24.63;;;;;;;;;;5026788;27;97838;-74
2021/12/11 05:43:10;;;;;;;69.82;25.70;;;;;;;;;;5030338;27;96290;-75
2021/12/11 05:45:37;;;;;;;85.68;28.17;;;;;;;;;;5016474;28;96917;-75
2021/12/11 05:48:04;;;;;;;62.45;23.60;;;;;;;;;;5033683;28;96187;-75
2021/12/11 05:50:33;;;;;;;74.88;27.55;;;;;;;;;;5027635;28;95351;-75
2021/12/11 05:53:00;;;;;;;77.93;27.92;;;;;;;;;;5022274;27;97209;-75
2021/12/11 05:55:29;;;;;;;92.78;29.25;;;;;;;;;;5013389;27;97362;-75
2021/12/11 05:57:58;;;;;;;105.78;30.55;;;;;;;;;;5030570;28;95321;-75
2021/12/11 06:00:26;;;;;;;96.97;29.90;;;;;;;;;;5036622;28;96682;-75
2021/12/11 06:02:57;;;;;;;98.38;31.42;;;;;;;;;;5028404;28;95247;-75
2021/12/11 06:05:24;;;;;;;94.45;29.58;;;;;;;;;;5015557;28;96932;-74
2021/12/11 06:07:52;;;;;;;114.95;31.48;;;;;;;;;;5030334;27;97592;-75
2021/12/11 06:10:19;;;;;;;105.63;30.38;;;;;;;;;;5015192;28;95122;-75
2021/12/11 06:12:47;;;;;;;117.35;32.17;;;;;;;;;;5039062;27;97197;-76
2021/12/11 06:15:14;;;;;;;111.53;30.67;;;;;;;;;;5053532;27;97376;-75
2021/12/11 06:17:42;;;;;;;136.27;33.88;;;;;;;;;;5035139;27;96342;-76
2021/12/11 06:20:10;;;;;;;127.40;33.00;;;;;;;;;;5013419;28;97227;-75
2021/12/11 06:22:36;;;;;;;85.45;28.95;;;;;;;;;;5022168;27;97214;-76
2021/12/11 06:25:05;;;;;;;110.13;29.27;;;;;;;;;;5053812;27;97241;-76
2021/12/11 06:27:32;;;;;;;93.13;29.48;;;;;;;;;;5035259;27;96177;-76
2021/12/11 06:29:58;;;;;;;105.72;30.20;;;;;;;;;;5013542;28;95391;-75
2021/12/11 06:32:25;;;;;;;86.43;26.38;;;;;;;;;;5015053;27;96926;-76
2021/12/11 06:34:53;;;;;;;103.45;29.35;;;;;;;;;;5053519;27;97438;-75
2021/12/11 06:37:21;;;;;;;83.30;28.08;;;;;;;;;;5043054;27;95329;-75
2021/12/11 06:39:49;;;;;;;88.95;28.85;;;;;;;;;;4999623;28;96809;-78
2021/12/11 06:42:16;;;;;;;84.22;27.48;;;;;;;;;;5012998;28;97552;-76
2021/12/11 06:44:42;;;;;;;117.03;31.75;;;;;;;;;;5034838;27;95199;-78
2021/12/11 06:47:10;;;;;;;82.55;28.92;;;;;;;;;;5033013;27;97459;-78
2021/12/11 06:49:37;;;;;;;99.18;28.80;;;;;;;;;;5033133;28;95348;-77
2021/12/11 06:52:06;;;;;;;99.47;30.52;;;;;;;;;;5032595;28;97193;-77
2021/12/11 06:54:32;;;;;;;97.45;29.98;;;;;;;;;;5028715;27;97417;-78
2021/12/11 06:56:59;;;;;;;89.82;31.08;;;;;;;;;;5036105;27;95376;-78
2021/12/11 06:59:25;;;;;;;88.30;28.50;;;;;;;;;;5032294;28;97139;-78
2021/12/11 07:01:51;;;;;;;91.72;27.35;;;;;;;;;;5033669;27;97646;-78
2021/12/11 07:04:18;;;;;;;80.35;29.17;;;;;;;;;;5051587;27;95122;-78
2021/12/11 07:06:48;;;;;;;104.28;31.17;;;;;;;;;;5040650;27;97148;-76
2021/12/11 07:09:15;;;;;;;92.65;31.45;;;;;;;;;;5051018;27;95183;-76
2021/12/11 07:11:44;;;;;;;103.75;32.33;;;;;;;;;;5053349;27;98635;-76
2021/12/11 07:14:12;;;;;;;99.93;29.88;;;;;;;;;;5036979;27;97606;-76
2021/12/11 07:16:38;;;;;;;109.85;31.38;;;;;;;;;;5031634;28;95361;-76
2021/12/11 07:19:06;;;;;;;107.50;32.53;;;;;;;;;;5047214;27;96779;-76
2021/12/11 07:21:32;;;;;;;117.03;31.75;;;;;;;;;;5051496;27;97341;-76
2021/12/11 07:23:59;;;;;;;111.85;32.50;;;;;;;;;;5016729;27;95259;-76
2021/12/11 07:26:31;;;;;;;144.27;34.90;;;;;;;;;;5034439;28;96866;-76
2021/12/11 07:28:59;;;;;;;112.97;32.88;;;;;;;;;;5045207;27;95344;-76
2021/12/11 07:31:25;;;;;;;104.18;32.67;;;;;;;;;;5052645;27;96937;-76
2021/12/11 07:33:52;;;;;;;92.90;31.98;;;;;;;;;;5039585;27;96299;-76
2021/12/11 07:36:19;;;;;;;91.25;30.58;;;;;;;;;;5036406;27;95199;-76
2021/12/11 07:38:45;;;;;;;98.45;30.10;;;;;;;;;;5012480;28;96873;-76
2021/12/11 07:41:12;;;;;;;81.93;29.65;;;;;;;;;;5036936;27;97396;-75
2021/12/11 07:43:39;;;;;;;84.50;29.65;;;;;;;;;;5026731;27;95249;-75
2021/12/11 07:46:07;;;;;;;95.68;31.17;;;;;;;;;;5025526;28;96871;-76
2021/12/11 07:48:33;;;;;;;88.40;29.48;;;;;;;;;;5014694;28;97576;-75
2021/12/11 07:51:00;;;;;;;86.70;33.83;;;;;;;;;;5012520;28;97149;-75
2021/12/11 07:53:26;;;;;;;72.82;29.75;;;;;;;;;;5013852;27;97163;-76
2021/12/11 07:55:53;;;;;;;94.22;30.60;;;;;;;;;;5021299;27;95173;-76
2021/12/11 07:58:20;;;;;;;76.10;30.73;;;;;;;;;;5025440;27;96836;-76
2021/12/11 08:00:47;;;;;;;83.60;30.40;;;;;;;;;;5029618;27;96459;-75
2021/12/11 08:03:14;;;;;;;82.30;29.27;;;;;;;;;;5031165;27;96385;-75
2021/12/11 08:05:41;;;;;;;82.90;28.30;;;;;;;;;;5032584;28;96797;-75
2021/12/11 08:08:10;;;;;;;65.55;27.30;;;;;;;;;;5006951;28;97321;-75
2021/12/11 08:10:37;;;;;;;83.22;29.27;;;;;;;;;;5030524;28;95396;-75
2021/12/11 08:13:04;;;;;;;77.50;28.38;;;;;;;;;;5020790;28;96120;-76
2021/12/11 08:15:31;;;;;;;83.93;28.83;;;;;;;;;;5024368;28;95289;-76
2021/12/11 08:17:59;;;;;;;92.95;28.63;;;;;;;;;;5024803;27;97008;-76
2021/12/11 08:20:27;;;;;;;105.45;33.13;;;;;;;;;;5028661;28;97288;-76
2021/12/11 08:22:54;;;;;;;101.28;32.05;;;;;;;;;;5020718;27;95628;-76
2021/12/11 08:25:21;;;;;;;102.00;31.80;;;;;;;;;;4998681;28;96821;-76
2021/12/11 08:27:48;;;;;;;89.32;30.92;;;;;;;;;;5018623;27;97364;-75
2021/12/11 16:14:25;;;;;;;48.28;18.27;;;;;;;;;;5007115;28;95341;-77
2021/12/11 16:16:53;;;;;;;45.03;16.85;;;;;;;;;;4989704;28;97376;-77
2021/12/11 16:19:25;;;;;;;40.92;17.27;;;;;;;;;;4987375;28;95154;-77
2021/12/11 16:21:51;;;;;;;51.15;14.70;;;;;;;;;;5005261;28;96896;-77
2021/12/11 16:24:17;;;;;;;49.83;16.27;;;;;;;;;;4998246;28;96190;-77
2021/12/11 16:26:45;;;;;;;41.58;13.57;;;;;;;;;;4987834;28;95365;-77
2021/12/11 16:29:11;;;;;;;33.65;13.23;;;;;;;;;;4986312;28;97101;-77
2021/12/11 16:31:39;;;;;;;29.90;11.80;;;;;;;;;;4988087;28;97295;-77
2021/12/11 16:34:06;;;;;;;38.42;11.88;;;;;;;;;;4991828;28;95278;-77
2021/12/11 16:36:49;;;;;;;40.35;12.70;;;;;;;;;;4998011;28;97377;-77
2021/12/11 16:39:18;;;;;;;49.05;13.32;;;;;;;;;;4973503;28;95119;-77
2021/12/11 16:41:47;;;;;;;36.67;11.57;;;;;;;;;;4988243;28;98018;-77
2021/12/11 16:44:15;;;;;;;38.53;13.20;;;;;;;;;;4984627;28;97409;-77
2021/12/11 16:46:44;;;;;;;31.92;12.50;;;;;;;;;;4998723;28;96011;-77
2021/12/11 16:49:12;;;;;;;42.72;12.75;;;;;;;;;;4987413;28;97098;-77
2021/12/11 16:51:40;;;;;;;35.38;12.43;;;;;;;;;;4986754;28;97583;-77
2021/12/11 16:54:07;;;;;;;38.33;11.75;;;;;;;;;;4985985;28;95391;-77
2021/12/11 16:56:34;;;;;;;33.67;12.00;;;;;;;;;;5003459;28;96754;-77
2021/12/11 16:59:02;;;;;;;29.17;11.40;;;;;;;;;;5001561;28;95426;-77
2021/12/11 17:01:30;;;;;;;31.40;10.60;;;;;;;;;;5005764;28;96763;-77
2021/12/11 17:03:58;;;;;;;27.58;11.68;;;;;;;;;;4989513;28;97466;-77
2021/12/11 17:06:29;;;;;;;35.03;11.60;;;;;;;;;;4992496;28;95324;-75
2021/12/11 17:08:56;;;;;;;23.87;10.60;;;;;;;;;;4987607;28;96817;-77
2021/12/11 17:11:22;;;;;;;25.10;10.90;;;;;;;;;;4985698;28;97482;-74
2021/12/11 17:13:49;;;;;;;39.45;18.88;;;;;;;;;;4998366;28;96416;-75
2021/12/11 17:16:22;;;;;;;29.77;16.60;;;;;;;;;;4987588;28;96896;-77
2021/12/11 17:18:48;;;;;;;37.60;15.20;;;;;;;;;;4990011;28;97189;-75
2021/12/11 17:21:15;;;;;;;35.17;14.52;;;;;;;;;;4985169;28;96863;-77
2021/12/11 17:23:42;;;;;;;28.30;12.25;;;;;;;;;;4983956;28;97628;-77
2021/12/11 17:26:10;;;;;;;34.53;13.13;;;;;;;;;;4972789;28;95211;-77
2021/12/11 17:28:42;;;;;;;32.80;14.90;;;;;;;;;;4987673;28;96806;-77
2021/12/11 17:31:09;;;;;;;37.03;13.17;;;;;;;;;;4993134;28;97039;-77
2021/12/11 17:33:37;;;;;;;46.42;23.80;;;;;;;;;;4974158;28;95474;-77
2021/12/11 17:36:04;;;;;;;59.47;26.27;;;;;;;;;;4980879;28;96738;-77
2021/12/11 17:38:30;;;;;;;51.63;22.65;;;;;;;;;;4990729;28;99472;-77
2021/12/11 17:40:57;;;;;;;40.78;19.70;;;;;;;;;;4976927;28;95328;-77
2021/12/11 17:43:24;;;;;;;45.95;20.52;;;;;;;;;;4971137;28;97369;-77
2021/12/11 17:45:52;;;;;;;43.65;21.40;;;;;;;;;;4984421;28;95251;-77
2021/12/11 17:48:18;;;;;;;40.72;18.17;;;;;;;;;;4990460;28;97128;-77
2021/12/11 17:50:56;;;;;;;30.33;13.43;;;;;;;;;;4972290;28;97496;-77
2021/12/11 17:53:23;;;;;;;33.88;13.73;;;;;;;;;;4971880;28;95020;-77
2021/12/11 17:55:51;;;;;;;37.38;13.00;;;;;;;;;;4973915;28;96775;-77
2021/12/11 17:58:20;;;;;;;25.92;11.73;;;;;;;;;;4958137;28;97489;-77
2021/12/11 18:00:50;;;;;;;34.60;12.85;;;;;;;;;;4978433;28;95940;-77
2021/12/11 18:03:21;;;;;;;32.78;11.00;;;;;;;;;;4974050;28;96950;-76
2021/12/11 18:05:48;;;;;;;31.05;11.25;;;;;;;;;;4972721;28;95236;-77
2021/12/11 18:08:20;;;;;;;29.42;11.45;;;;;;;;;;4953998;28;95590;-77
2021/12/11 18:11:02;;;;;;;34.83;12.10;;;;;;;;;;4973485;28;97341;-76
2021/12/11 18:13:34;;;;;;;30.23;11.07;;;;;;;;;;4970440;28;96847;-76
2021/12/11 18:16:05;;;;;;;28.40;12.65;;;;;;;;;;4958480;28;97529;-76
2021/12/11 18:18:35;;;;;;;32.90;13.13;;;;;;;;;;4970880;28;97470;-77
2021/12/11 18:21:16;;;;;;;31.00;12.00;;;;;;;;;;4971891;28;95355;-76
2021/12/11 18:23:43;;;;;;;29.17;12.33;;;;;;;;;;4972308;28;96807;-76
2021/12/11 18:26:16;;;;;;;35.30;15.82;;;;;;;;;;4974386;28;95733;-76
2021/12/11 18:28:43;;;;;;;;;;;;;;;;;;4985299;28;95681;-79
2021/12/11 18:31:12;;;;;;;62.28;25.15;;;;;;;;;;4970988;28;126792;-76
2021/12/11 18:33:39;;;;;;;79.82;33.88;;;;;;;;;;4970633;28;95330;-76
2021/12/11 18:36:14;;;;;;;93.43;40.35;;;;;;;;;;4970648;28;96708;-76
2021/12/11 18:38:41;;;;;;;83.13;34.67;;;;;;;;;;4972089;28;97269;-76
2021/12/11 18:41:16;;;;;;;94.07;37.42;;;;;;;;;;4967465;28;95895;-76
2021/12/11 18:43:44;;;;;;;88.20;39.97;;;;;;;;;;4966648;28;96746;-75
2021/12/11 18:46:12;;;;;;;93.13;38.67;;;;;;;;;;4974017;28;97543;-75
2021/12/11 18:48:39;;;;;;;56.95;25.73;;;;;;;;;;5004440;28;97112;-76
2021/12/11 18:51:07;;;;;;;48.33;20.80;;;;;;;;;;4967303;28;96709;-75
2021/12/11 18:53:34;;;;;;;44.67;19.75;;;;;;;;;;4972675;28;96133;-75
2021/12/11 18:56:01;;;;;;;36.25;16.45;;;;;;;;;;4972813;28;96709;-75
2021/12/11 18:58:29;;;;;;;43.15;16.77;;;;;;;;;;4984544;28;97485;-75
2021/12/11 19:01:01;;;;;;;36.35;15.73;;;;;;;;;;4976569;28;95341;-75
2021/12/11 19:03:32;;;;;;;37.08;17.40;;;;;;;;;;4969836;28;97216;-76
2021/12/11 19:06:00;;;;;;;37.33;16.58;;;;;;;;;;4971432;28;97179;-75
2021/12/11 19:08:27;;;;;;;39.08;16.35;;;;;;;;;;4983874;28;95420;-75
2021/12/11 19:10:57;;;;;;;41.80;15.60;;;;;;;;;;4971192;28;97408;-76
2021/12/11 19:13:24;;;;;;;32.03;15.82;;;;;;;;;;4971321;28;95300;-76
2021/12/11 19:15:55;;;;;;;37.10;16.00;;;;;;;;;;4971463;28;96871;-76
2021/12/11 19:18:21;;;;;;;39.85;16.58;;;;;;;;;;4967313;28;97358;-76
2021/12/11 19:20:50;;;;;;;35.22;15.70;;;;;;;;;;4952623;28;95364;-76
2021/12/11 19:23:17;;;;;;;42.75;17.77;;;;;;;;;;4951944;28;97235;-76
2021/12/11 19:25:44;;;;;;;41.50;17.42;;;;;;;;;;4967867;28;97506;-76
2021/12/11 19:28:13;;;;;;;39.08;18.70;;;;;;;;;;4974979;28;96866;-76
2021/12/11 19:30:42;;;;;;;36.53;17.23;;;;;;;;;;4965986;28;96868;-76
2021/12/11 19:33:10;;;;;;;50.78;19.42;;;;;;;;;;4969485;28;95988;-76
2021/12/11 19:35:37;;;;;;;46.80;19.98;;;;;;;;;;4972048;28;96828;-75
2021/12/11 19:38:04;;;;;;;49.38;20.08;;;;;;;;;;4968714;28;97237;-76
2021/12/11 19:40:32;;;;;;;41.42;21.10;;;;;;;;;;4960698;28;96558;-76
2021/12/11 19:43:01;;;;;;;43.60;19.17;;;;;;;;;;4972407;28;96721;-76
2021/12/11 19:45:27;;;;;;;43.38;20.38;;;;;;;;;;4971328;28;97239;-75
2021/12/11 19:47:54;;;;;;;57.45;20.85;;;;;;;;;;4966876;28;95257;-75
2021/12/11 19:50:21;;;;;;;49.63;21.67;;;;;;;;;;4991802;28;96807;-76
2021/12/11 19:52:52;;;;;;;44.40;21.35;;;;;;;;;;4980239;28;97057;-75
2021/12/11 19:55:20;;;;;;;52.97;22.92;;;;;;;;;;4970331;28;96856;-75
2021/12/11 19:57:47;;;;;;;46.35;21.88;;;;;;;;;;4968495;28;97578;-77
2021/12/11 20:00:17;;;;;;;47.53;22.15;;;;;;;;;;4973432;28;96466;-77
2021/12/11 20:02:44;;;;;;;56.60;22.45;;;;;;;;;;4971312;28;96037;-77
2021/12/11 20:05:13;;;;;;;48.70;23.27;;;;;;;;;;4970564;28;97348;-76
2021/12/11 20:07:40;;;;;;;52.08;21.13;;;;;;;;;;4969790;28;95184;-77
2021/12/11 20:10:17;;;;;;;46.13;22.10;;;;;;;;;;4953413;28;96813;-76
2021/12/11 20:12:48;;;;;;;51.58;21.45;;;;;;;;;;4981465;28;97570;-76
2021/12/11 20:15:16;;;;;;;39.78;20.67;;;;;;;;;;4976139;28;95570;-75
2021/12/11 20:17:47;;;;;;;49.55;22.50;;;;;;;;;;4969556;28;97309;-77
2021/12/11 20:20:17;;;;;;;59.40;21.45;;;;;;;;;;4976063;28;95147;-76
2021/12/11 20:23:04;;;;;;;45.22;23.08;;;;;;;;;;4969360;28;96554;-77
2021/12/11 20:25:34;;;;;;;52.22;23.75;;;;;;;;;;4973718;28;97324;-76
2021/12/11 20:28:01;;;;;;;55.67;24.00;;;;;;;;;;4983333;28;95584;-76
2021/12/11 20:30:30;;;;;;;51.08;23.27;;;;;;;;;;4969589;28;96804;-77
2021/12/11 20:32:57;;;;;;;52.67;24.15;;;;;;;;;;4972880;28;97483;-76
2021/12/11 20:35:25;;;;;;;75.35;30.00;;;;;;;;;;4962912;28;95291;-76
2021/12/11 20:37:52;;;;;;;67.60;28.00;;;;;;;;;;4960993;28;96477;-75
2021/12/11 20:40:24;;;;;;;56.08;24.92;;;;;;;;;;4968487;28;96404;-76
2021/12/11 20:42:51;;;;;;;64.82;26.48;;;;;;;;;;4976455;28;96899;-76
2021/12/11 20:45:19;;;;;;;54.92;25.25;;;;;;;;;;4966333;28;97326;-75
2021/12/11 20:47:46;;;;;;;62.05;26.08;;;;;;;;;;4969954;28;95456;-75
2021/12/11 20:50:16;;;;;;;55.33;24.00;;;;;;;;;;4970909;28;97290;-76
2021/12/11 20:52:42;;;;;;;57.83;24.63;;;;;;;;;;4979780;28;97376;-76
2021/12/11 20:55:11;;;;;;;63.25;26.33;;;;;;;;;;4974434;28;95572;-76
2021/12/11 20:57:38;;;;;;;58.80;24.40;;;;;;;;;;4969257;28;97931;-75
2021/12/11 21:00:07;;;;;;;52.85;25.67;;;;;;;;;;4972196;28;95156;-75
2021/12/11 21:02:33;;;;;;;60.92;25.00;;;;;;;;;;4969125;28;96568;-76
2021/12/11 21:05:05;;;;;;;72.03;26.27;;;;;;;;;;4981550;28;97385;-77
2021/12/11 21:07:33;;;;;;;61.43;26.40;;;;;;;;;;4992884;28;95208;-77
2021/12/11 21:10:19;;;;;;;65.68;24.38;;;;;;;;;;4961488;28;96823;-77
2021/12/11 21:12:48;;;;;;;61.55;26.27;;;;;;;;;;4973735;28;96185;-78
2021/12/11 21:15:24;;;;;;;62.97;25.27;;;;;;;;;;4974265;28;95221;-78
2021/12/11 21:17:51;;;;;;;54.20;22.85;;;;;;;;;;4973813;28;97084;-77
2021/12/11 21:20:33;;;;;;;57.25;24.63;;;;;;;;;;4977884;28;96080;-78
2021/12/11 21:23:04;;;;;;;61.53;24.57;;;;;;;;;;4954784;28;97340;-77
2021/12/11 21:25:36;;;;;;;53.88;23.67;;;;;;;;;;4953609;28;97436;-77
2021/12/11 21:28:05;;;;;;;54.70;23.02;;;;;;;;;;4972189;28;95337;-77
2021/12/11 21:30:35;;;;;;;56.97;24.48;;;;;;;;;;4967037;28;95674;-77
2021/12/11 21:33:03;;;;;;;59.25;24.75;;;;;;;;;;4966314;28;97062;-77
2021/12/11 21:35:31;;;;;;;49.35;23.40;;;;;;;;;;5005983;28;95472;-77
2021/12/11 21:37:58;;;;;;;58.85;23.08;;;;;;;;;;4973533;28;96981;-77
2021/12/11 21:40:45;;;;;;;57.10;23.10;;;;;;;;;;4964450;28;97303;-77
2021/12/11 21:43:16;;;;;;;51.40;22.02;;;;;;;;;;4956912;28;95352;-77
2021/12/11 21:45:54;;;;;;;46.92;22.95;;;;;;;;;;4954174;28;97363;-77
2021/12/11 21:48:30;;;;;;;54.30;22.52;;;;;;;;;;4990878;28;95327;-77
2021/12/11 21:50:59;;;;;;;48.95;22.38;;;;;;;;;;4960221;28;96882;-77
2021/12/11 21:53:27;;;;;;;64.65;23.13;;;;;;;;;;4972969;28;97358;-77
2021/12/11 21:55:55;;;;;;;40.28;21.52;;;;;;;;;;4967283;28;95715;-76
2021/12/11 21:58:23;;;;;;;52.95;20.33;;;;;;;;;;4958913;28;96898;-76
2021/12/11 22:00:53;;;;;;;53.92;21.77;;;;;;;;;;4968928;28;97372;-76
2021/12/11 22:03:21;;;;;;;53.55;22.35;;;;;;;;;;4968001;28;95317;-77
2021/12/11 22:06:11;;;;;;;55.60;21.02;;;;;;;;;;4975305;28;96675;-76
2021/12/11 22:08:38;;;;;;;48.75;20.73;;;;;;;;;;4973712;28;95662;-77
2021/12/11 22:11:06;;;;;;;50.45;20.55;;;;;;;;;;4985287;28;96813;-76
2021/12/11 22:13:32;;;;;;;46.05;19.30;;;;;;;;;;4961010;28;97413;-77
2021/12/11 22:16:02;;;;;;;54.33;20.80;;;;;;;;;;4953817;28;95271;-76
2021/12/11 22:18:30;;;;;;;47.75;19.25;;;;;;;;;;4962072;28;96814;-76
2021/12/11 22:20:59;;;;;;;52.05;18.88;;;;;;;;;;4987090;28;97222;-76
2021/12/11 22:23:28;;;;;;;47.67;19.85;;;;;;;;;;4993170;28;95362;-76
2021/12/11 22:25:57;;;;;;;53.50;20.95;;;;;;;;;;4982127;28;96780;-77